sensor_id;sensor_type;location;lat;lon;timestamp;P1;durP1;ratioP1;P2;durP2;ratioP2
52458;SDS011;38372;52.902;6.024;2023-05-13T00:00:36;4.50;;;2.40;;
52458;SDS011;38372;52.902;6.024;2023-05-13T00:03:02;3.17;;;2.22;;
52458;SDS011;38372;52.902;6.024;2023-05-13T00:05:28;4.18;;;2.05;;
52458;SDS011;38372;52.902;6.024;2023-05-13T00:07:54;3.00;;;2.00;;
52458;SDS011;38372;52.902;6.024;2023-05-13T00:10:20;3.90;;;1.67;;
52458;SDS011;38372;52.902;6.024;2023-05-13T00:12:46;3.67;;;1.77;;
52458;SDS011;38372;52.902;6.024;2023-05-13T00:15:12;3.60;;;2.40;;
52458;SDS011;38372;52.902;6.024;2023-05-13T00:17:38;3.13;;;2.00;;
52458;SDS011;38372;52.902;6.024;2023-05-13T00:20:04;4.60;;;2.08;;
52458;SDS011;38372;52.902;6.024;2023-05-13T00:22:30;4.88;;;2.40;;
52458;SDS011;38372;52.902;6.024;2023-05-13T00:24:56;4.50;;;1.83;;
52458;SDS011;38372;52.902;6.024;2023-05-13T00:27:22;2.35;;;1.73;;
52458;SDS011;38372;52.902;6.024;2023-05-13T00:29:48;3.63;;;2.25;;
52458;SDS011;38372;52.902;6.024;2023-05-13T00:32:14;3.63;;;2.20;;
52458;SDS011;38372;52.902;6.024;2023-05-13T00:34:40;4.47;;;2.45;;
52458;SDS011;38372;52.902;6.024;2023-05-13T00:37:05;3.67;;;1.98;;
52458;SDS011;38372;52.902;6.024;2023-05-13T00:39:34;2.88;;;1.73;;
52458;SDS011;38372;52.902;6.024;2023-05-13T00:42:00;4.07;;;1.63;;
52458;SDS011;38372;52.902;6.024;2023-05-13T00:44:28;4.90;;;2.33;;
52458;SDS011;38372;52.902;6.024;2023-05-13T00:46:54;5.65;;;2.55;;
52458;SDS011;38372;52.902;6.024;2023-05-13T00:49:20;3.97;;;2.35;;
52458;SDS011;38372;52.902;6.024;2023-05-13T00:51:46;4.30;;;2.13;;
52458;SDS011;38372;52.902;6.024;2023-05-13T00:54:12;4.03;;;1.85;;
52458;SDS011;38372;52.902;6.024;2023-05-13T00:56:38;4.63;;;1.95;;
52458;SDS011;38372;52.902;6.024;2023-05-13T00:59:04;5.88;;;3.03;;
52458;SDS011;38372;52.902;6.024;2023-05-13T01:01:36;4.07;;;2.50;;
52458;SDS011;38372;52.902;6.024;2023-05-13T01:09:44;5.25;;;3.05;;
52458;SDS011;38372;52.902;6.024;2023-05-13T01:12:22;6.22;;;2.40;;
52458;SDS011;38372;52.902;6.024;2023-05-13T01:17:43;5.18;;;3.08;;
52458;SDS011;38372;52.902;6.024;2023-05-13T01:20:15;4.43;;;1.85;;
52458;SDS011;38372;52.902;6.024;2023-05-13T01:22:45;4.05;;;2.60;;
52458;SDS011;38372;52.902;6.024;2023-05-13T01:25:11;4.35;;;2.83;;
52458;SDS011;38372;52.902;6.024;2023-05-13T01:27:37;4.38;;;2.08;;
52458;SDS011;38372;52.902;6.024;2023-05-13T01:30:03;5.55;;;2.53;;
52458;SDS011;38372;52.902;6.024;2023-05-13T01:32:31;3.97;;;2.20;;
52458;SDS011;38372;52.902;6.024;2023-05-13T01:34:57;5.63;;;2.30;;
52458;SDS011;38372;52.902;6.024;2023-05-13T01:37:25;4.15;;;2.33;;
52458;SDS011;38372;52.902;6.024;2023-05-13T01:39:51;4.10;;;2.75;;
52458;SDS011;38372;52.902;6.024;2023-05-13T01:42:17;4.88;;;2.33;;
52458;SDS011;38372;52.902;6.024;2023-05-13T01:44:43;4.07;;;2.67;;
52458;SDS011;38372;52.902;6.024;2023-05-13T01:47:09;6.13;;;3.15;;
52458;SDS011;38372;52.902;6.024;2023-05-13T01:49:35;5.57;;;2.72;;
52458;SDS011;38372;52.902;6.024;2023-05-13T01:52:01;6.28;;;2.40;;
52458;SDS011;38372;52.902;6.024;2023-05-13T01:54:28;5.90;;;2.92;;
52458;SDS011;38372;52.902;6.024;2023-05-13T01:56:54;5.18;;;2.72;;
52458;SDS011;38372;52.902;6.024;2023-05-13T01:59:20;4.07;;;2.03;;
52458;SDS011;38372;52.902;6.024;2023-05-13T02:01:46;5.40;;;3.10;;
52458;SDS011;38372;52.902;6.024;2023-05-13T02:04:12;4.78;;;2.53;;
52458;SDS011;38372;52.902;6.024;2023-05-13T02:06:37;3.97;;;2.08;;
52458;SDS011;38372;52.902;6.024;2023-05-13T02:09:03;4.40;;;2.58;;
52458;SDS011;38372;52.902;6.024;2023-05-13T02:11:29;5.40;;;2.55;;
52458;SDS011;38372;52.902;6.024;2023-05-13T02:13:55;3.90;;;2.60;;
52458;SDS011;38372;52.902;6.024;2023-05-13T02:16:20;6.50;;;3.00;;
52458;SDS011;38372;52.902;6.024;2023-05-13T02:18:46;6.40;;;3.25;;
52458;SDS011;38372;52.902;6.024;2023-05-13T02:21:12;4.05;;;2.55;;
52458;SDS011;38372;52.902;6.024;2023-05-13T02:23:38;3.58;;;2.15;;
52458;SDS011;38372;52.902;6.024;2023-05-13T02:26:04;4.07;;;2.70;;
52458;SDS011;38372;52.902;6.024;2023-05-13T02:28:29;5.95;;;3.13;;
52458;SDS011;38372;52.902;6.024;2023-05-13T02:30:55;4.93;;;2.72;;
52458;SDS011;38372;52.902;6.024;2023-05-13T02:33:21;5.00;;;2.88;;
52458;SDS011;38372;52.902;6.024;2023-05-13T02:35:47;5.47;;;2.90;;
52458;SDS011;38372;52.902;6.024;2023-05-13T02:38:13;4.43;;;2.60;;
52458;SDS011;38372;52.902;6.024;2023-05-13T02:40:39;5.22;;;3.55;;
52458;SDS011;38372;52.902;6.024;2023-05-13T02:43:05;6.00;;;2.90;;
52458;SDS011;38372;52.902;6.024;2023-05-13T02:45:31;4.97;;;2.78;;
52458;SDS011;38372;52.902;6.024;2023-05-13T02:47:57;8.75;;;2.90;;
52458;SDS011;38372;52.902;6.024;2023-05-13T02:50:23;4.13;;;2.70;;
52458;SDS011;38372;52.902;6.024;2023-05-13T02:52:49;5.60;;;3.40;;
52458;SDS011;38372;52.902;6.024;2023-05-13T02:55:15;8.57;;;3.33;;
52458;SDS011;38372;52.902;6.024;2023-05-13T02:57:41;4.45;;;2.67;;
52458;SDS011;38372;52.902;6.024;2023-05-13T03:00:07;6.55;;;2.85;;
52458;SDS011;38372;52.902;6.024;2023-05-13T03:02:35;7.65;;;3.70;;
52458;SDS011;38372;52.902;6.024;2023-05-13T03:05:02;7.30;;;3.10;;
52458;SDS011;38372;52.902;6.024;2023-05-13T03:07:28;5.65;;;3.00;;
52458;SDS011;38372;52.902;6.024;2023-05-13T03:09:54;4.88;;;3.10;;
52458;SDS011;38372;52.902;6.024;2023-05-13T03:12:20;6.25;;;3.17;;
52458;SDS011;38372;52.902;6.024;2023-05-13T03:14:46;4.57;;;2.63;;
52458;SDS011;38372;52.902;6.024;2023-05-13T03:17:11;5.32;;;3.13;;
52458;SDS011;38372;52.902;6.024;2023-05-13T03:19:37;7.13;;;3.90;;
52458;SDS011;38372;52.902;6.024;2023-05-13T03:22:04;4.95;;;2.42;;
52458;SDS011;38372;52.902;6.024;2023-05-13T03:24:30;4.10;;;2.25;;
52458;SDS011;38372;52.902;6.024;2023-05-13T03:26:57;5.43;;;2.92;;
52458;SDS011;38372;52.902;6.024;2023-05-13T03:29:23;8.50;;;3.30;;
52458;SDS011;38372;52.902;6.024;2023-05-13T03:31:49;5.32;;;2.90;;
52458;SDS011;38372;52.902;6.024;2023-05-13T03:34:15;4.38;;;2.45;;
52458;SDS011;38372;52.902;6.024;2023-05-13T03:36:41;5.72;;;2.90;;
52458;SDS011;38372;52.902;6.024;2023-05-13T03:39:06;3.92;;;2.33;;
52458;SDS011;38372;52.902;6.024;2023-05-13T03:41:32;8.07;;;3.67;;
52458;SDS011;38372;52.902;6.024;2023-05-13T03:43:59;6.05;;;3.05;;
52458;SDS011;38372;52.902;6.024;2023-05-13T03:46:24;4.53;;;3.15;;
52458;SDS011;38372;52.902;6.024;2023-05-13T03:48:51;5.57;;;3.05;;
52458;SDS011;38372;52.902;6.024;2023-05-13T03:51:19;4.53;;;2.72;;
52458;SDS011;38372;52.902;6.024;2023-05-13T03:53:46;5.07;;;2.67;;
52458;SDS011;38372;52.902;6.024;2023-05-13T03:56:12;3.40;;;2.35;;
52458;SDS011;38372;52.902;6.024;2023-05-13T03:58:39;5.30;;;3.17;;
52458;SDS011;38372;52.902;6.024;2023-05-13T04:01:05;4.57;;;2.50;;
52458;SDS011;38372;52.902;6.024;2023-05-13T04:03:32;4.57;;;2.65;;
52458;SDS011;38372;52.902;6.024;2023-05-13T04:05:58;4.78;;;2.63;;
52458;SDS011;38372;52.902;6.024;2023-05-13T04:08:25;4.07;;;2.60;;
52458;SDS011;38372;52.902;6.024;2023-05-13T04:10:51;3.47;;;2.38;;
52458;SDS011;38372;52.902;6.024;2023-05-13T04:13:17;6.72;;;3.15;;
52458;SDS011;38372;52.902;6.024;2023-05-13T04:15:43;4.03;;;2.63;;
52458;SDS011;38372;52.902;6.024;2023-05-13T04:18:09;4.55;;;2.63;;
52458;SDS011;38372;52.902;6.024;2023-05-13T04:20:38;4.03;;;2.38;;
52458;SDS011;38372;52.902;6.024;2023-05-13T04:23:04;4.70;;;3.13;;
52458;SDS011;38372;52.902;6.024;2023-05-13T04:25:30;4.72;;;2.78;;
52458;SDS011;38372;52.902;6.024;2023-05-13T04:27:56;4.90;;;3.03;;
52458;SDS011;38372;52.902;6.024;2023-05-13T04:30:22;5.15;;;2.35;;
52458;SDS011;38372;52.902;6.024;2023-05-13T04:32:48;8.43;;;3.10;;
52458;SDS011;38372;52.902;6.024;2023-05-13T04:35:14;5.10;;;2.45;;
52458;SDS011;38372;52.902;6.024;2023-05-13T04:37:39;4.60;;;2.13;;
52458;SDS011;38372;52.902;6.024;2023-05-13T04:40:06;6.30;;;2.58;;
52458;SDS011;38372;52.902;6.024;2023-05-13T04:42:32;5.97;;;3.17;;
52458;SDS011;38372;52.902;6.024;2023-05-13T04:44:58;5.65;;;2.65;;
52458;SDS011;38372;52.902;6.024;2023-05-13T04:47:24;4.57;;;2.45;;
52458;SDS011;38372;52.902;6.024;2023-05-13T04:49:50;3.30;;;2.50;;
52458;SDS011;38372;52.902;6.024;2023-05-13T04:52:16;3.88;;;2.42;;
52458;SDS011;38372;52.902;6.024;2023-05-13T04:54:42;3.63;;;2.58;;
52458;SDS011;38372;52.902;6.024;2023-05-13T04:57:07;6.13;;;3.03;;
52458;SDS011;38372;52.902;6.024;2023-05-13T04:59:33;3.72;;;2.75;;
52458;SDS011;38372;52.902;6.024;2023-05-13T05:01:59;4.50;;;2.53;;
52458;SDS011;38372;52.902;6.024;2023-05-13T05:04:25;6.55;;;3.22;;
52458;SDS011;38372;52.902;6.024;2023-05-13T05:06:52;5.78;;;2.63;;
52458;SDS011;38372;52.902;6.024;2023-05-13T05:09:17;3.63;;;2.75;;
52458;SDS011;38372;52.902;6.024;2023-05-13T05:11:44;4.13;;;2.47;;
52458;SDS011;38372;52.902;6.024;2023-05-13T05:14:09;10.55;;;2.85;;
52458;SDS011;38372;52.902;6.024;2023-05-13T05:16:35;4.80;;;2.58;;
52458;SDS011;38372;52.902;6.024;2023-05-13T05:19:01;3.25;;;2.40;;
52458;SDS011;38372;52.902;6.024;2023-05-13T05:21:27;3.58;;;2.70;;
52458;SDS011;38372;52.902;6.024;2023-05-13T05:23:52;5.95;;;2.40;;
52458;SDS011;38372;52.902;6.024;2023-05-13T05:26:18;5.05;;;2.13;;
52458;SDS011;38372;52.902;6.024;2023-05-13T05:28:44;3.33;;;2.35;;
52458;SDS011;38372;52.902;6.024;2023-05-13T05:31:11;4.03;;;2.70;;
52458;SDS011;38372;52.902;6.024;2023-05-13T05:33:37;4.97;;;2.40;;
52458;SDS011;38372;52.902;6.024;2023-05-13T05:36:03;4.53;;;2.42;;
52458;SDS011;38372;52.902;6.024;2023-05-13T05:38:29;6.03;;;2.33;;
52458;SDS011;38372;52.902;6.024;2023-05-13T05:40:55;6.38;;;2.70;;
52458;SDS011;38372;52.902;6.024;2023-05-13T05:43:21;5.07;;;2.58;;
52458;SDS011;38372;52.902;6.024;2023-05-13T05:45:46;7.75;;;2.88;;
52458;SDS011;38372;52.902;6.024;2023-05-13T05:48:12;3.47;;;2.42;;
52458;SDS011;38372;52.902;6.024;2023-05-13T05:50:38;4.38;;;2.63;;
52458;SDS011;38372;52.902;6.024;2023-05-13T05:53:04;5.57;;;2.78;;
52458;SDS011;38372;52.902;6.024;2023-05-13T05:55:31;7.70;;;3.08;;
52458;SDS011;38372;52.902;6.024;2023-05-13T05:57:57;4.65;;;2.35;;
52458;SDS011;38372;52.902;6.024;2023-05-13T06:00:28;4.20;;;2.28;;
52458;SDS011;38372;52.902;6.024;2023-05-13T06:02:54;5.05;;;2.83;;
52458;SDS011;38372;52.902;6.024;2023-05-13T06:05:21;5.53;;;2.92;;
52458;SDS011;38372;52.902;6.024;2023-05-13T06:07:47;3.47;;;2.00;;
52458;SDS011;38372;52.902;6.024;2023-05-13T06:10:13;3.72;;;2.40;;
52458;SDS011;38372;52.902;6.024;2023-05-13T06:12:39;5.22;;;2.65;;
52458;SDS011;38372;52.902;6.024;2023-05-13T06:15:06;5.68;;;3.05;;
52458;SDS011;38372;52.902;6.024;2023-05-13T06:17:35;3.47;;;2.40;;
52458;SDS011;38372;52.902;6.024;2023-05-13T06:20:01;4.50;;;2.53;;
52458;SDS011;38372;52.902;6.024;2023-05-13T06:22:28;4.30;;;2.60;;
52458;SDS011;38372;52.902;6.024;2023-05-13T06:24:54;3.70;;;2.63;;
52458;SDS011;38372;52.902;6.024;2023-05-13T06:27:20;4.97;;;2.58;;
52458;SDS011;38372;52.902;6.024;2023-05-13T06:29:46;6.28;;;3.25;;
52458;SDS011;38372;52.902;6.024;2023-05-13T06:32:12;4.82;;;2.85;;
52458;SDS011;38372;52.902;6.024;2023-05-13T06:34:38;9.77;;;3.17;;
52458;SDS011;38372;52.902;6.024;2023-05-13T06:37:06;3.80;;;2.38;;
52458;SDS011;38372;52.902;6.024;2023-05-13T06:39:32;6.07;;;2.20;;
52458;SDS011;38372;52.902;6.024;2023-05-13T06:41:58;3.03;;;2.13;;
52458;SDS011;38372;52.902;6.024;2023-05-13T06:44:24;4.38;;;2.67;;
52458;SDS011;38372;52.902;6.024;2023-05-13T06:46:49;3.17;;;2.00;;
52458;SDS011;38372;52.902;6.024;2023-05-13T06:49:15;6.45;;;2.72;;
52458;SDS011;38372;52.902;6.024;2023-05-13T06:51:41;3.95;;;2.00;;
52458;SDS011;38372;52.902;6.024;2023-05-13T06:54:07;4.05;;;1.80;;
52458;SDS011;38372;52.902;6.024;2023-05-13T06:56:33;3.90;;;2.00;;
52458;SDS011;38372;52.902;6.024;2023-05-13T06:58:59;3.35;;;2.10;;
52458;SDS011;38372;52.902;6.024;2023-05-13T07:01:24;4.15;;;2.38;;
52458;SDS011;38372;52.902;6.024;2023-05-13T07:03:50;3.60;;;2.05;;
52458;SDS011;38372;52.902;6.024;2023-05-13T07:06:16;1.92;;;1.75;;
52458;SDS011;38372;52.902;6.024;2023-05-13T07:08:42;3.42;;;2.13;;
52458;SDS011;38372;52.902;6.024;2023-05-13T07:11:07;3.13;;;1.70;;
52458;SDS011;38372;52.902;6.024;2023-05-13T07:13:33;4.63;;;2.03;;
52458;SDS011;38372;52.902;6.024;2023-05-13T07:16:00;3.13;;;1.73;;
52458;SDS011;38372;52.902;6.024;2023-05-13T07:18:28;3.17;;;2.22;;
52458;SDS011;38372;52.902;6.024;2023-05-13T07:20:54;3.25;;;1.92;;
52458;SDS011;38372;52.902;6.024;2023-05-13T07:23:21;3.78;;;1.90;;
52458;SDS011;38372;52.902;6.024;2023-05-13T07:25:47;3.72;;;1.92;;
52458;SDS011;38372;52.902;6.024;2023-05-13T07:28:15;3.67;;;1.90;;
52458;SDS011;38372;52.902;6.024;2023-05-13T07:30:41;3.83;;;1.67;;
52458;SDS011;38372;52.902;6.024;2023-05-13T07:33:07;2.33;;;1.67;;
52458;SDS011;38372;52.902;6.024;2023-05-13T07:35:32;1.95;;;1.50;;
52458;SDS011;38372;52.902;6.024;2023-05-13T07:37:58;2.53;;;1.55;;
52458;SDS011;38372;52.902;6.024;2023-05-13T07:40:24;2.72;;;1.88;;
52458;SDS011;38372;52.902;6.024;2023-05-13T07:42:50;3.30;;;1.90;;
52458;SDS011;38372;52.902;6.024;2023-05-13T07:45:16;5.60;;;1.85;;
52458;SDS011;38372;52.902;6.024;2023-05-13T07:47:41;2.78;;;1.52;;
52458;SDS011;38372;52.902;6.024;2023-05-13T07:50:07;3.15;;;1.98;;
52458;SDS011;38372;52.902;6.024;2023-05-13T07:52:33;5.03;;;2.53;;
52458;SDS011;38372;52.902;6.024;2023-05-13T07:54:59;3.90;;;1.60;;
52458;SDS011;38372;52.902;6.024;2023-05-13T07:57:25;3.05;;;1.48;;
52458;SDS011;38372;52.902;6.024;2023-05-13T07:59:51;5.25;;;2.50;;
52458;SDS011;38372;52.902;6.024;2023-05-13T08:02:18;2.67;;;1.75;;
52458;SDS011;38372;52.902;6.024;2023-05-13T08:04:44;2.65;;;1.90;;
52458;SDS011;38372;52.902;6.024;2023-05-13T08:07:10;2.65;;;1.75;;
52458;SDS011;38372;52.902;6.024;2023-05-13T08:09:36;3.47;;;2.00;;
52458;SDS011;38372;52.902;6.024;2023-05-13T08:12:02;3.20;;;1.73;;
52458;SDS011;38372;52.902;6.024;2023-05-13T08:14:28;3.33;;;1.63;;
52458;SDS011;38372;52.902;6.024;2023-05-13T08:16:54;3.45;;;1.80;;
52458;SDS011;38372;52.902;6.024;2023-05-13T08:19:20;3.38;;;1.88;;
52458;SDS011;38372;52.902;6.024;2023-05-13T08:21:46;3.33;;;1.90;;
52458;SDS011;38372;52.902;6.024;2023-05-13T08:24:11;2.53;;;1.95;;
52458;SDS011;38372;52.902;6.024;2023-05-13T08:26:37;2.85;;;1.73;;
52458;SDS011;38372;52.902;6.024;2023-05-13T08:29:03;3.13;;;1.70;;
52458;SDS011;38372;52.902;6.024;2023-05-13T08:31:29;2.35;;;1.70;;
52458;SDS011;38372;52.902;6.024;2023-05-13T08:33:56;4.28;;;2.15;;
52458;SDS011;38372;52.902;6.024;2023-05-13T08:36:22;3.13;;;1.83;;
52458;SDS011;38372;52.902;6.024;2023-05-13T08:38:49;5.07;;;2.35;;
52458;SDS011;38372;52.902;6.024;2023-05-13T08:41:15;3.55;;;1.83;;
52458;SDS011;38372;52.902;6.024;2023-05-13T08:43:42;2.67;;;1.60;;
52458;SDS011;38372;52.902;6.024;2023-05-13T08:46:09;2.85;;;1.77;;
52458;SDS011;38372;52.902;6.024;2023-05-13T08:48:39;2.67;;;1.67;;
52458;SDS011;38372;52.902;6.024;2023-05-13T08:51:06;2.80;;;1.75;;
52458;SDS011;38372;52.902;6.024;2023-05-13T08:53:33;5.13;;;2.22;;
52458;SDS011;38372;52.902;6.024;2023-05-13T08:56:00;2.72;;;1.80;;
52458;SDS011;38372;52.902;6.024;2023-05-13T08:58:26;4.88;;;2.03;;
52458;SDS011;38372;52.902;6.024;2023-05-13T09:00:52;3.38;;;1.65;;
52458;SDS011;38372;52.902;6.024;2023-05-13T09:03:18;2.33;;;1.65;;
52458;SDS011;38372;52.902;6.024;2023-05-13T09:05:46;3.58;;;1.95;;
52458;SDS011;38372;52.902;6.024;2023-05-13T09:08:12;2.70;;;1.58;;
52458;SDS011;38372;52.902;6.024;2023-05-13T09:10:39;3.63;;;1.88;;
52458;SDS011;38372;52.902;6.024;2023-05-13T09:13:05;3.05;;;1.40;;
52458;SDS011;38372;52.902;6.024;2023-05-13T09:15:31;2.35;;;1.40;;
52458;SDS011;38372;52.902;6.024;2023-05-13T09:17:58;2.55;;;1.73;;
52458;SDS011;38372;52.902;6.024;2023-05-13T09:20:28;2.85;;;1.50;;
52458;SDS011;38372;52.902;6.024;2023-05-13T09:23:01;4.05;;;1.50;;
52458;SDS011;38372;52.902;6.024;2023-05-13T09:25:28;2.28;;;1.20;;
52458;SDS011;38372;52.902;6.024;2023-05-13T09:28:01;1.98;;;1.10;;
52458;SDS011;38372;52.902;6.024;2023-05-13T09:30:31;2.05;;;1.20;;
52458;SDS011;38372;52.902;6.024;2023-05-13T09:33:11;2.08;;;1.33;;
52458;SDS011;38372;52.902;6.024;2023-05-13T09:38:12;2.20;;;1.48;;
52458;SDS011;38372;52.902;6.024;2023-05-13T09:40:54;2.67;;;1.48;;
52458;SDS011;38372;52.902;6.024;2023-05-13T09:43:25;2.50;;;1.48;;
52458;SDS011;38372;52.902;6.024;2023-05-13T09:46:03;2.47;;;1.65;;
52458;SDS011;38372;52.902;6.024;2023-05-13T09:48:31;2.72;;;1.27;;
52458;SDS011;38372;52.902;6.024;2023-05-13T09:50:58;5.32;;;1.73;;
52458;SDS011;38372;52.902;6.024;2023-05-13T09:53:25;2.25;;;1.67;;
52458;SDS011;38372;52.902;6.024;2023-05-13T09:55:52;2.08;;;1.20;;
52458;SDS011;38372;52.902;6.024;2023-05-13T09:58:20;1.80;;;1.15;;
52458;SDS011;38372;52.902;6.024;2023-05-13T10:00:49;2.22;;;1.08;;
52458;SDS011;38372;52.902;6.024;2023-05-13T10:03:15;2.75;;;1.20;;
52458;SDS011;38372;52.902;6.024;2023-05-13T10:05:41;2.33;;;1.30;;
52458;SDS011;38372;52.902;6.024;2023-05-13T10:08:08;2.20;;;1.17;;
52458;SDS011;38372;52.902;6.024;2023-05-13T10:10:36;7.40;;;1.57;;
52458;SDS011;38372;52.902;6.024;2023-05-13T10:13:02;2.45;;;1.60;;
52458;SDS011;38372;52.902;6.024;2023-05-13T10:15:31;2.75;;;1.35;;
52458;SDS011;38372;52.902;6.024;2023-05-13T10:17:58;2.92;;;1.30;;
52458;SDS011;38372;52.902;6.024;2023-05-13T10:20:24;1.70;;;1.10;;
52458;SDS011;38372;52.902;6.024;2023-05-13T10:22:51;3.00;;;1.55;;
52458;SDS011;38372;52.902;6.024;2023-05-13T10:25:17;2.78;;;1.35;;
52458;SDS011;38372;52.902;6.024;2023-05-13T10:27:43;2.70;;;1.25;;
52458;SDS011;38372;52.902;6.024;2023-05-13T10:30:09;2.25;;;1.30;;
52458;SDS011;38372;52.902;6.024;2023-05-13T10:32:36;3.30;;;1.60;;
52458;SDS011;38372;52.902;6.024;2023-05-13T10:35:07;2.53;;;1.10;;
52458;SDS011;38372;52.902;6.024;2023-05-13T10:40:17;2.72;;;1.20;;
52458;SDS011;38372;52.902;6.024;2023-05-13T10:43:08;2.55;;;1.20;;
52458;SDS011;38372;52.902;6.024;2023-05-13T10:45:50;3.95;;;1.38;;
52458;SDS011;38372;52.902;6.024;2023-05-13T10:48:21;3.58;;;1.30;;
52458;SDS011;38372;52.902;6.024;2023-05-13T10:50:55;1.58;;;0.80;;
52458;SDS011;38372;52.902;6.024;2023-05-13T10:53:27;2.08;;;1.08;;
52458;SDS011;38372;52.902;6.024;2023-05-13T10:55:58;1.60;;;1.20;;
52458;SDS011;38372;52.902;6.024;2023-05-13T11:00:58;3.08;;;1.40;;
52458;SDS011;38372;52.902;6.024;2023-05-13T11:03:53;4.43;;;1.38;;
52458;SDS011;38372;52.902;6.024;2023-05-13T11:06:21;2.05;;;1.00;;
52458;SDS011;38372;52.902;6.024;2023-05-13T11:09:10;2.28;;;1.10;;
52458;SDS011;38372;52.902;6.024;2023-05-13T11:12:03;2.60;;;1.30;;
52458;SDS011;38372;52.902;6.024;2023-05-13T11:14:29;2.20;;;1.15;;
52458;SDS011;38372;52.902;6.024;2023-05-13T11:19:35;2.03;;;1.10;;
52458;SDS011;38372;52.902;6.024;2023-05-13T11:24:34;1.80;;;0.77;;
52458;SDS011;38372;52.902;6.024;2023-05-13T11:27:21;2.75;;;0.88;;
52458;SDS011;38372;52.902;6.024;2023-05-13T11:29:53;4.13;;;1.20;;
52458;SDS011;38372;52.902;6.024;2023-05-13T11:35:22;1.65;;;0.90;;
52458;SDS011;38372;52.902;6.024;2023-05-13T11:37:50;3.35;;;1.35;;
52458;SDS011;38372;52.902;6.024;2023-05-13T11:40:22;2.67;;;1.40;;
52458;SDS011;38372;52.902;6.024;2023-05-13T11:42:49;2.42;;;1.48;;
52458;SDS011;38372;52.902;6.024;2023-05-13T11:45:19;2.33;;;1.40;;
52458;SDS011;38372;52.902;6.024;2023-05-13T11:47:46;2.25;;;1.10;;
52458;SDS011;38372;52.902;6.024;2023-05-13T11:50:16;1.92;;;0.80;;
52458;SDS011;38372;52.902;6.024;2023-05-13T11:52:50;3.03;;;1.05;;
52458;SDS011;38372;52.902;6.024;2023-05-13T11:55:26;3.00;;;1.30;;
52458;SDS011;38372;52.902;6.024;2023-05-13T11:57:53;4.93;;;1.93;;
52458;SDS011;38372;52.902;6.024;2023-05-13T12:00:26;3.40;;;1.63;;
52458;SDS011;38372;52.902;6.024;2023-05-13T12:02:54;2.45;;;1.40;;
52458;SDS011;38372;52.902;6.024;2023-05-13T12:05:20;1.70;;;1.23;;
52458;SDS011;38372;52.902;6.024;2023-05-13T12:07:47;4.32;;;1.33;;
52458;SDS011;38372;52.902;6.024;2023-05-13T12:10:13;1.83;;;1.20;;
52458;SDS011;38372;52.902;6.024;2023-05-13T12:12:40;3.58;;;1.42;;
52458;SDS011;38372;52.902;6.024;2023-05-13T12:15:08;2.58;;;1.45;;
52458;SDS011;38372;52.902;6.024;2023-05-13T12:20:05;2.47;;;1.13;;
52458;SDS011;38372;52.902;6.024;2023-05-13T12:22:36;3.25;;;1.08;;
52458;SDS011;38372;52.902;6.024;2023-05-13T12:27:56;2.13;;;1.27;;
52458;SDS011;38372;52.902;6.024;2023-05-13T12:30:22;2.60;;;1.15;;
52458;SDS011;38372;52.902;6.024;2023-05-13T12:32:48;2.03;;;1.27;;
52458;SDS011;38372;52.902;6.024;2023-05-13T12:35:14;2.38;;;1.58;;
52458;SDS011;38372;52.902;6.024;2023-05-13T12:37:40;2.20;;;1.40;;
52458;SDS011;38372;52.902;6.024;2023-05-13T12:40:09;3.53;;;1.38;;
52458;SDS011;38372;52.902;6.024;2023-05-13T12:42:43;4.53;;;1.60;;
52458;SDS011;38372;52.902;6.024;2023-05-13T12:45:09;2.40;;;1.45;;
52458;SDS011;38372;52.902;6.024;2023-05-13T12:47:51;1.88;;;1.30;;
52458;SDS011;38372;52.902;6.024;2023-05-13T12:50:17;5.70;;;2.00;;
52458;SDS011;38372;52.902;6.024;2023-05-13T12:52:43;4.38;;;1.58;;
52458;SDS011;38372;52.902;6.024;2023-05-13T12:55:09;2.30;;;1.55;;
52458;SDS011;38372;52.902;6.024;2023-05-13T12:57:37;2.75;;;1.67;;
52458;SDS011;38372;52.902;6.024;2023-05-13T13:00:04;3.63;;;1.60;;
52458;SDS011;38372;52.902;6.024;2023-05-13T13:02:31;2.58;;;1.55;;
52458;SDS011;38372;52.902;6.024;2023-05-13T13:04:57;2.95;;;1.50;;
52458;SDS011;38372;52.902;6.024;2023-05-13T13:07:23;3.63;;;1.33;;
52458;SDS011;38372;52.902;6.024;2023-05-13T13:09:49;3.20;;;1.35;;
52458;SDS011;38372;52.902;6.024;2023-05-13T13:12:15;2.90;;;1.65;;
52458;SDS011;38372;52.902;6.024;2023-05-13T13:17:10;2.47;;;1.27;;
52458;SDS011;38372;52.902;6.024;2023-05-13T13:19:36;2.83;;;1.50;;
52458;SDS011;38372;52.902;6.024;2023-05-13T13:22:02;1.55;;;0.90;;
52458;SDS011;38372;52.902;6.024;2023-05-13T13:24:28;3.10;;;1.20;;
52458;SDS011;38372;52.902;6.024;2023-05-13T13:26:54;2.28;;;0.82;;
52458;SDS011;38372;52.902;6.024;2023-05-13T13:29:20;2.88;;;1.20;;
52458;SDS011;38372;52.902;6.024;2023-05-13T13:31:46;2.53;;;1.33;;
52458;SDS011;38372;52.902;6.024;2023-05-13T13:34:11;1.60;;;1.00;;
52458;SDS011;38372;52.902;6.024;2023-05-13T13:36:38;2.30;;;1.20;;
52458;SDS011;38372;52.902;6.024;2023-05-13T13:39:04;2.08;;;1.17;;
52458;SDS011;38372;52.902;6.024;2023-05-13T13:41:29;1.65;;;1.00;;
52458;SDS011;38372;52.902;6.024;2023-05-13T13:43:55;2.13;;;1.20;;
52458;SDS011;38372;52.902;6.024;2023-05-13T13:46:21;3.10;;;1.10;;
52458;SDS011;38372;52.902;6.024;2023-05-13T13:48:47;1.75;;;1.38;;
52458;SDS011;38372;52.902;6.024;2023-05-13T13:51:13;3.30;;;1.35;;
52458;SDS011;38372;52.902;6.024;2023-05-13T13:53:38;2.50;;;1.30;;
52458;SDS011;38372;52.902;6.024;2023-05-13T13:56:04;2.22;;;1.40;;
52458;SDS011;38372;52.902;6.024;2023-05-13T13:58:31;2.53;;;1.02;;
52458;SDS011;38372;52.902;6.024;2023-05-13T14:00:56;4.20;;;1.55;;
52458;SDS011;38372;52.902;6.024;2023-05-13T14:03:22;2.53;;;1.40;;
52458;SDS011;38372;52.902;6.024;2023-05-13T14:05:48;1.73;;;1.08;;
52458;SDS011;38372;52.902;6.024;2023-05-13T14:08:15;2.28;;;1.08;;
52458;SDS011;38372;52.902;6.024;2023-05-13T14:10:41;2.83;;;1.70;;
52458;SDS011;38372;52.902;6.024;2023-05-13T14:13:07;3.80;;;1.30;;
52458;SDS011;38372;52.902;6.024;2023-05-13T14:15:33;3.63;;;1.83;;
52458;SDS011;38372;52.902;6.024;2023-05-13T14:18:03;2.15;;;1.13;;
52458;SDS011;38372;52.902;6.024;2023-05-13T14:20:31;3.03;;;1.38;;
52458;SDS011;38372;52.902;6.024;2023-05-13T14:22:58;1.98;;;1.20;;
52458;SDS011;38372;52.902;6.024;2023-05-13T14:25:24;2.58;;;1.20;;
52458;SDS011;38372;52.902;6.024;2023-05-13T14:27:50;6.82;;;1.33;;
52458;SDS011;38372;52.902;6.024;2023-05-13T14:30:16;2.22;;;1.30;;
52458;SDS011;38372;52.902;6.024;2023-05-13T14:32:41;3.10;;;1.45;;
52458;SDS011;38372;52.902;6.024;2023-05-13T14:35:11;2.28;;;1.35;;
52458;SDS011;38372;52.902;6.024;2023-05-13T14:37:39;2.83;;;1.30;;
52458;SDS011;38372;52.902;6.024;2023-05-13T14:40:05;2.33;;;1.48;;
52458;SDS011;38372;52.902;6.024;2023-05-13T14:42:31;4.35;;;1.63;;
52458;SDS011;38372;52.902;6.024;2023-05-13T14:44:57;2.08;;;1.00;;
52458;SDS011;38372;52.902;6.024;2023-05-13T14:47:25;2.72;;;1.83;;
52458;SDS011;38372;52.902;6.024;2023-05-13T14:49:50;2.28;;;1.63;;
52458;SDS011;38372;52.902;6.024;2023-05-13T14:52:16;2.28;;;1.50;;
52458;SDS011;38372;52.902;6.024;2023-05-13T14:54:42;4.00;;;1.80;;
52458;SDS011;38372;52.902;6.024;2023-05-13T14:57:08;2.13;;;1.15;;
52458;SDS011;38372;52.902;6.024;2023-05-13T14:59:35;2.50;;;1.33;;
52458;SDS011;38372;52.902;6.024;2023-05-13T15:02:01;1.67;;;1.17;;
52458;SDS011;38372;52.902;6.024;2023-05-13T15:04:27;1.63;;;1.20;;
52458;SDS011;38372;52.902;6.024;2023-05-13T15:06:54;2.13;;;1.30;;
52458;SDS011;38372;52.902;6.024;2023-05-13T15:09:22;1.92;;;1.30;;
52458;SDS011;38372;52.902;6.024;2023-05-13T15:11:48;2.03;;;1.08;;
52458;SDS011;38372;52.902;6.024;2023-05-13T15:14:13;2.58;;;1.55;;
52458;SDS011;38372;52.902;6.024;2023-05-13T15:16:42;2.40;;;1.27;;
52458;SDS011;38372;52.902;6.024;2023-05-13T15:19:08;2.95;;;1.30;;